ADDS METAR Data INFO
IDs: Format: Raw Decoded Include TAF

Data at: 0256 UTC 17 Jan 2018

KTNU 170235Z AUTO 00000KT 10SM FEW011 M19/M21 A3065 RMK AO2 PWINO
KTNU 170215Z AUTO 29003KT 10SM CLR M19/M21 A3066 RMK AO2 PWINO
KTNU 170155Z AUTO 29004KT 10SM CLR M18/M21 A3066 RMK AO2 PWINO
KTNU 170135Z AUTO 30005KT 10SM CLR M18/M20 A3067 RMK AO2 PWINO
KTNU 170115Z AUTO 29006KT 10SM CLR M17/M20 A3067 RMK AO2 PWINO
KTNU 170055Z AUTO 30007KT 10SM FEW008 M17/M19 A3067 RMK AO2 PWINO
KTNU 170035Z AUTO 29005KT 10SM BKN007 M17/M19 A3067 RMK AO2 PWINO
KTNU 170015Z AUTO 29006KT 10SM OVC007 M17/M19 A3066 RMK AO2 PWINO
KTNU 162355Z AUTO 29005KT 10SM OVC006 M16/M18 A3066 RMK AO2 PWINO
KTNU 162335Z AUTO 29005KT 10SM BKN006 M15/M18 A3066 RMK AO2 PWINO
KTNU 162315Z AUTO 30006KT 10SM BKN006 BKN011 M15/M18 A3066 RMK AO2 PWINO
KTNU 162255Z AUTO 30008KT 9SM SCT007 BKN010 M14/M17 A3066 RMK AO2 PWINO
KTNU 162235Z AUTO 31009KT 10SM CLR M14/M17 A3065 RMK AO2 PWINO
KTNU 162215Z AUTO 30009KT 10SM FEW013 M14/M17 A3065 RMK AO2 PWINO
KTNU 162155Z AUTO 31009KT 10SM FEW013 M14/M17 A3065 RMK AO2 PWINO
KTNU 162135Z AUTO 30010G15KT 10SM CLR M14/M17 A3065 RMK AO2 PWINO
KTNU 162115Z AUTO 31009KT 10SM FEW014 M14/M17 A3065 RMK AO2 PWINO
KTNU 162055Z AUTO 31008KT 9SM BKN015 M14/M17 A3065 RMK AO2 PWINO
KTNU 162035Z AUTO 33012KT 10SM OVC015 M14/M17 A3066 RMK AO2 PWINO
KTNU 162015Z AUTO 31011KT 10SM OVC015 M14/M18 A3065 RMK AO2 PWINO
KTNU 161955Z AUTO 30012KT 10SM OVC015 M15/M18 A3065 RMK AO2 PWINO
KTNU 161935Z AUTO 30011KT 9SM BKN015 M15/M18 A3065 RMK AO2 PWINO
KTNU 161915Z AUTO 31011KT 9SM FEW014 M15/M19 A3065 RMK AO2 PWINO
KTNU 161855Z AUTO 32012KT 9SM SCT013 M15/M19 A3066 RMK AO2 PWINO
KTNU 161835Z AUTO 30011KT 10SM FEW013 M16/M19 A3066 RMK AO2 PWINO
KTNU 161815Z AUTO 33013KT 9SM FEW033 FEW041 BKN050 M16/M19 A3067 RMK AO2 PWINO
KTNU 161755Z AUTO 32015KT 9SM FEW042 OVC050 M16/M20 A3067 RMK AO2 PWINO
KTNU 161735Z AUTO 33013G18KT 10SM FEW041 OVC050 M16/M19 A3068 RMK AO2 PWINO
KTNU 161715Z AUTO 31012KT 6SM HZ SCT042 OVC055 M16/M20 A3069 RMK AO2 PWINO
KTNU 161655Z AUTO 32013KT 5SM HZ FEW023 BKN042 OVC055 M17/M20 A3069 RMK AO2 PWINO
KTNU 161635Z AUTO 33013KT 5SM HZ FEW027 FEW035 OVC055 M17/M20 A3069 RMK AO2 PWINO
KTNU 161615Z AUTO 32014KT 5SM HZ SCT027 SCT033 OVC060 M17/M20 A3069 RMK AO2 PWINO
KTNU 161555Z AUTO 32013KT 3SM HZ FEW021 SCT027 BKN033 M18/M21 A3068 RMK AO2 PWINO
KTNU 161535Z AUTO 32014KT 2SM HZ SCT026 BKN040 OVC046 M18/M21 A3068 RMK AO2 PWINO
KTNU 161515Z AUTO 33016KT 3SM HZ BKN029 BKN040 OVC048 M18/M21 A3067 RMK AO2 PWINO
KTNU 161455Z AUTO 33015KT 2 1/2SM HZ FEW011 OVC029 M18/M21 A3067 RMK AO2 PWINO
KTNU 161435Z AUTO 31011KT 3SM HZ SCT012 SCT018 OVC029 M19/M22 A3066 RMK AO2 PWINO
KTNU 161415Z AUTO 31012KT 2 1/2SM HZ SCT014 BKN021 OVC032 M19/M22 A3065 RMK AO2 PWINO
KTNU 161355Z AUTO 32012G17KT 4SM HZ SCT018 BKN023 OVC028 M19/M22 A3065 RMK AO2 PWINO
KTNU 161335Z AUTO 31012KT 9SM FEW008 BKN017 OVC026 M19/M23 A3064 RMK AO2 PWINO
KTNU 161315Z AUTO 31010G16KT 6SM HZ FEW008 OVC017 M19/M23 A3064 RMK AO2 PWINO
KTNU 161255Z AUTO 32010G17KT 5SM HZ OVC018 M20/M23 A3063 RMK AO2 PWINO
KTNU 161235Z AUTO 31009G16KT 6SM HZ FEW008 BKN016 OVC021 M20/M23 A3063 RMK AO2 PWINO
KTNU 161215Z AUTO 31014KT 4SM HZ SCT008 OVC018 M20/M23 A3062 RMK AO2 PWINO
KTNU 161155Z AUTO 32012G18KT 5SM HZ FEW008 OVC015 M20/M23 A3062 RMK AO2 PWINO
KTNU 161135Z AUTO 32011G19KT 3SM HZ FEW008 OVC014 M20/M23 A3061 RMK AO2 PWINO
KTNU 161115Z AUTO 31013KT 7SM SCT008 OVC016 M20/M23 A3061 RMK AO2 PWINO
KTNU 161055Z AUTO 31015KT 5SM HZ BKN008 OVC016 M20/M23 A3061 RMK AO2 PWINO
KTNU 161035Z AUTO 31013KT 6SM HZ BKN008 OVC017 M20/M23 A3061 RMK AO2 PWINO
KTNU 161015Z AUTO 31011KT 6SM HZ BKN008 OVC017 M21/M24 A3061 RMK AO2 PWINO
KTNU 160955Z AUTO 30009KT 8SM BKN008 OVC018 M21/M24 A3061 RMK AO2 PWINO
KTNU 160935Z AUTO 30010KT 10SM SCT008 BKN014 OVC027 M21/M25 A3060 RMK AO2 PWINO
KTNU 160915Z AUTO 30010KT 10SM SCT009 BKN015 OVC034 M22/M25 A3060 RMK AO2 PWINO
KTNU 160855Z AUTO 31010KT 10SM BKN009 OVC030 M22/M25 A3060 RMK AO2 PWINO
KTNU 160835Z AUTO 31013KT 10SM BKN008 OVC012 M22/M26 A3060 RMK AO2 PWINO
KTNU 160815Z AUTO 31012KT 10SM BKN008 OVC012 M22/M26 A3059 RMK AO2 PWINO
KTNU 160755Z AUTO 30011KT 10SM OVC008 M22/M25 A3058 RMK AO2 PWINO
KTNU 160735Z AUTO 31014G19KT 10SM OVC009 M22/M25 A3058 RMK AO2 PWINO
KTNU 160715Z AUTO 31012G18KT 10SM OVC009 M22/M25 A3058 RMK AO2 PWINO
KTNU 160655Z AUTO 31011KT 10SM OVC009 M22/M25 A3058 RMK AO2 PWINO
KTNU 160635Z AUTO 31011G17KT 10SM OVC009 M22/M25 A3058 RMK AO2 PWINO
KTNU 160615Z AUTO 31013KT 10SM BKN010 BKN017 BKN055 M22/M26 A3058 RMK AO2 PWINO
KTNU 160555Z AUTO 31012G19KT 10SM OVC011 M22/M26 A3058 RMK AO2 PWINO
KTNU 160535Z AUTO 30016KT 10SM BKN010 OVC013 M21/M25 A3058 RMK AO2 PWINO
KTNU 160515Z AUTO 31014G22KT 10SM OVC010 M21/M25 A3058 RMK AO2 PWINO
KTNU 160455Z AUTO 31011G20KT 10SM OVC011 M21/M25 A3058 RMK AO2 PWINO
KTNU 160435Z AUTO 31015G21KT 10SM OVC010 M21/M25 A3058 RMK AO2 PWINO
KTNU 160415Z AUTO 31012G21KT 9SM BKN010 OVC013 M21/M24 A3057 RMK AO2 PWINO
KTNU 160355Z AUTO 31012KT 10SM OVC011 M21/M25 A3057 RMK AO2 PWINO
KTNU 160335Z AUTO 31014KT 10SM OVC011 M21/M24 A3057 RMK AO2 PWINO
KTNU 160315Z AUTO 30012KT 10SM OVC012 M20/M24 A3057 RMK AO2 PWINO
KTNU 160255Z AUTO 31014G20KT 10SM OVC012 M20/M24 A3056 RMK AO2 PWINO
KTNU 160235Z AUTO 31013G18KT 10SM OVC014 M20/M24 A3056 RMK AO2 PWINO
KTNU 160215Z AUTO 31014G23KT 10SM OVC014 M20/M24 A3055 RMK AO2 PWINO
KTNU 160155Z AUTO 31017G22KT 10SM BKN014 BKN046 OVC055 M20/M24 A3054 RMK AO2 PWINO
KTNU 160135Z AUTO 32015G22KT 10SM OVC015 M19/M24 A3054 RMK AO2 PWINO
KTNU 160115Z AUTO 31017G22KT 10SM OVC014 M19/M23 A3054 RMK AO2 PWINO
KTNU 160055Z AUTO 31016G22KT 10SM BKN014 BKN026 BKN035 M19/M23 A3053 RMK AO2 PWINO
KTNU 160035Z AUTO 32017G22KT 10SM BKN014 BKN026 M19/M23 A3052 RMK AO2 PWINO
KTNU 160015Z AUTO 31013G23KT 10SM SCT012 BKN017 M19/M23 A3053 RMK AO2 PWINO
KTNU 152355Z AUTO 31013G21KT 10SM SCT016 BKN020 BKN028 M19/M23 A3052 RMK AO2 PWINO
KTNU 152335Z AUTO 31016KT 10SM SCT015 BKN021 BKN029 M19/M23 A3052 RMK AO2 PWINO
KTNU 152315Z AUTO 32014G21KT 10SM BKN016 BKN023 M18/M23 A3051 RMK AO2 PWINO
KTNU 152255Z AUTO 31014KT 10SM BKN016 BKN021 M18/M22 A3050 RMK AO2 PWINO
KTNU 152235Z AUTO 32011G22KT 4SM HZ BKN014 BKN020 M18/M21 A3049 RMK AO2 PWINO
KTNU 152215Z AUTO 31015KT 8SM SCT014 BKN023 M18/M22 A3048 RMK AO2 PWINO
KTNU 152155Z AUTO 31013G18KT 4SM HZ SCT015 BKN019 BKN024 M17/M21 A3048 RMK AO2 PWINO
KTNU 152135Z AUTO 31017KT 9SM BKN019 BKN023 M17/M22 A3047 RMK AO2 PWINO
KTNU 152115Z AUTO 31011KT 7SM BKN018 BKN023 M17/M21 A3046 RMK AO2 PWINO
KTNU 152055Z AUTO 30016KT 7SM BKN018 BKN023 M17/M21 A3045 RMK AO2 PWINO
KTNU 152035Z AUTO 31018KT 6SM HZ BKN017 BKN024 M17/M21 A3043 RMK AO2 PWINO
KTNU 152015Z AUTO 31018G24KT 9SM BKN015 BKN022 M17/M21 A3042 RMK AO2 PWINO
KTNU 151955Z AUTO 30016G26KT 5SM HZ BKN015 BKN022 M17/M21 A3042 RMK AO2 PWINO
KTNU 151935Z AUTO 30015G24KT 4SM HZ BKN015 OVC023 M17/M21 A3041 RMK AO2 PWINO
KTNU 151915Z AUTO 31019G26KT 4SM HZ BKN016 BKN023 M17/M21 A3041 RMK AO2 PWINO
KTNU 151855Z AUTO 31016G24KT 3SM HZ SCT015 M17/M21 A3041 RMK AO2 PWINO
KTNU 151835Z AUTO 30020G26KT 2SM HZ SCT015 M17/M21 A3041 RMK AO2 PWINO
KTNU 151815Z AUTO 31020G25KT 2 1/2SM HZ BKN016 M17/M21 A3041 RMK AO2 PWINO
KTNU 151755Z AUTO 31019G25KT 3SM HZ FEW010 BKN015 M17/M21 A3042 RMK AO2 PWINO
KTNU 151735Z AUTO 31019KT 3SM HZ FEW010 BKN015 M17/M21 A3042 RMK AO2 PWINO
KTNU 151715Z AUTO 30022G28KT 1 1/2SM HZ BKN016 BKN025 M17/M21 A3042 RMK AO2 PWINO
KTNU 151655Z AUTO 32017G25KT 2SM HZ SCT014 SCT021 SCT026 M17/M21 A3042 RMK AO2 PWINO
KTNU 151635Z AUTO 31019G26KT 1 1/4SM HZ SCT014 BKN020 BKN029 M17/M21 A3042 RMK AO2 PWINO
KTNU 151615Z AUTO 32021G30KT 1 1/2SM HZ FEW009 BKN017 OVC047 M17/M21 A3041 RMK AO2 PWINO
KTNU 151555Z AUTO 31019G27KT 2SM HZ FEW013 SCT018 BKN046 M18/M21 A3040 RMK AO2 PWINO
KTNU 151535Z AUTO 30016G23KT 2 1/2SM HZ BKN015 OVC045 M18/M21 A3039 RMK AO2 PWINO
KTNU 151515Z AUTO 31019G24KT 3SM HZ BKN013 BKN017 OVC044 M18/M21 A3037 RMK AO2 PWINO